createdAt,value
2023-03-21T00:00:57.262Z,3.20
2023-03-21T00:03:24.405Z,2.43
2023-03-21T00:05:53.469Z,2.43
2023-03-21T00:08:21.059Z,2.53
2023-03-21T00:10:48.118Z,2.57
2023-03-21T00:13:15.966Z,2.70
2023-03-21T00:16:03.525Z,2.27
2023-03-21T00:18:36.665Z,2.50
2023-03-21T00:21:37.782Z,3.30
2023-03-21T00:23:51.783Z,3.00
2023-03-21T00:26:18.453Z,2.80
2023-03-21T00:28:45.334Z,2.67
2023-03-21T00:31:12.845Z,2.70
2023-03-21T00:33:39.818Z,3.10
2023-03-21T00:36:08.435Z,2.80
2023-03-21T00:38:36.296Z,2.60
2023-03-21T00:41:23.257Z,2.43
2023-03-21T00:43:51.963Z,2.50
2023-03-21T00:46:19.522Z,2.33
2023-03-21T00:48:46.328Z,2.37
2023-03-21T00:51:27.143Z,2.97
2023-03-21T00:53:55.623Z,2.40
2023-03-21T00:56:22.742Z,3.03
2023-03-21T00:58:49.621Z,3.30
2023-03-21T01:01:16.904Z,3.17
2023-03-21T01:03:47.887Z,2.63
2023-03-21T01:06:19.156Z,3.17
2023-03-21T01:08:54.542Z,3.03
2023-03-21T01:11:24.559Z,2.80
2023-03-21T01:14:04.221Z,2.97
2023-03-21T01:16:38.635Z,2.40
2023-03-21T01:19:22.147Z,2.93
2023-03-21T01:21:51.524Z,3.00
2023-03-21T01:24:18.195Z,3.40
2023-03-21T01:26:45.321Z,3.30
2023-03-21T01:29:12.125Z,2.53
2023-03-21T01:31:39.527Z,2.87
2023-03-21T01:34:07.060Z,3.23
2023-03-21T01:36:34.126Z,3.13
2023-03-21T01:39:07.334Z,3.27
2023-03-21T01:41:43.043Z,3.30
2023-03-21T01:44:18.842Z,3.43
2023-03-21T01:47:07.304Z,3.03
2023-03-21T01:49:49.712Z,2.77
2023-03-21T01:52:36.673Z,2.97
2023-03-21T01:55:11.867Z,2.50
2023-03-21T01:58:05.380Z,3.27
2023-03-21T02:01:06.406Z,2.10
2023-03-21T02:03:51.885Z,2.33
2023-03-21T02:06:52.119Z,2.90
2023-03-21T02:09:37.944Z,2.87
2023-03-21T02:12:10.993Z,2.33
2023-03-21T02:14:39.098Z,2.60
2023-03-21T02:17:21.388Z,2.80
2023-03-21T02:20:22.101Z,2.87
2023-03-21T02:23:12.324Z,2.60
2023-03-21T02:26:12.761Z,2.47
2023-03-21T02:28:48.026Z,2.60
2023-03-21T02:31:38.102Z,2.00
2023-03-21T02:34:35.108Z,2.60
2023-03-21T02:37:46.796Z,2.43
2023-03-21T02:40:27.749Z,2.30
2023-03-21T02:43:22.583Z,2.03
2023-03-21T02:46:14.261Z,2.20
2023-03-21T02:48:51.244Z,2.13
2023-03-21T02:51:22.753Z,2.07
2023-03-21T02:54:23.618Z,2.63
2023-03-21T02:56:49.061Z,2.37
2023-03-21T02:59:17.791Z,2.10
2023-03-21T03:01:44.750Z,1.87
2023-03-21T03:04:27.406Z,2.07
2023-03-21T03:06:58.024Z,2.10
2023-03-21T03:09:57.320Z,2.13
2023-03-21T03:12:38.903Z,2.67
2023-03-21T03:15:35.737Z,3.07
2023-03-21T03:18:07.014Z,2.83
2023-03-21T03:20:39.346Z,2.50
2023-03-21T03:23:06.192Z,2.87
2023-03-21T03:25:47.738Z,2.40
2023-03-21T03:28:18.754Z,1.60
2023-03-21T03:31:05.070Z,3.50
2023-03-21T03:33:42.691Z,2.10
2023-03-21T03:36:25.024Z,2.10
2023-03-21T03:38:57.711Z,2.00
2023-03-21T03:41:29.451Z,2.50
2023-03-21T03:44:01.865Z,2.20
2023-03-21T03:47:08.664Z,2.40
2023-03-21T03:49:42.903Z,1.90
2023-03-21T03:52:17.572Z,2.13
2023-03-21T03:54:51.201Z,2.63
2023-03-21T03:57:19.832Z,2.23
2023-03-21T03:59:47.525Z,2.40
2023-03-21T04:02:43.602Z,3.00
2023-03-21T04:05:10.695Z,3.90
2023-03-21T04:07:37.394Z,4.47
2023-03-21T04:10:04.993Z,4.67
2023-03-21T04:12:38.947Z,2.90
2023-03-21T04:15:38.122Z,3.10
2023-03-21T04:18:11.637Z,4.40
2023-03-21T04:20:38.438Z,2.37
2023-03-21T04:23:07.595Z,2.70
2023-03-21T04:25:36.887Z,2.80
2023-03-21T04:28:05.596Z,2.37
2023-03-21T04:31:02.352Z,2.73
2023-03-21T04:33:32.382Z,2.60
2023-03-21T04:35:59.530Z,1.90
2023-03-21T04:38:30.736Z,2.20
2023-03-21T04:41:00.757Z,1.60
2023-03-21T04:43:30.603Z,2.40
2023-03-21T04:45:57.761Z,2.10
2023-03-21T04:48:24.655Z,2.07
2023-03-21T04:50:52.364Z,2.43
2023-03-21T04:53:19.418Z,2.70
2023-03-21T04:55:46.339Z,3.03
2023-03-21T04:58:13.268Z,3.10
2023-03-21T05:00:40.160Z,13.77
2023-03-21T05:03:09.039Z,15.40
2023-03-21T05:05:37.484Z,4.47
2023-03-21T05:08:05.748Z,3.23
2023-03-21T05:10:32.990Z,2.90
2023-03-21T05:13:00.461Z,4.03
2023-03-21T05:15:27.922Z,3.37
2023-03-21T05:17:55.009Z,3.20
2023-03-21T05:20:21.754Z,2.77
2023-03-21T05:22:51.452Z,3.60
2023-03-21T05:25:21.160Z,4.20
2023-03-21T05:28:01.945Z,2.80
2023-03-21T05:30:30.243Z,3.00
2023-03-21T05:33:00.188Z,3.33
2023-03-21T05:35:27.621Z,3.60
2023-03-21T05:37:57.854Z,5.20
2023-03-21T05:40:26.955Z,4.23
2023-03-21T05:42:57.282Z,3.30
2023-03-21T05:45:25.833Z,3.00
2023-03-21T05:47:54.094Z,2.63
2023-03-21T05:50:24.531Z,2.33
2023-03-21T05:53:05.296Z,2.10
2023-03-21T05:55:32.242Z,2.53
2023-03-21T05:57:59.089Z,2.70
2023-03-21T06:00:30.497Z,2.20
2023-03-21T06:03:19.195Z,2.57
2023-03-21T06:06:03.536Z,2.67
2023-03-21T06:08:36.200Z,2.47
2023-03-21T06:11:03.284Z,2.87
2023-03-21T06:13:32.988Z,2.90
2023-03-21T06:15:59.795Z,2.50
2023-03-21T06:18:27.965Z,2.60
2023-03-21T06:21:01.673Z,2.50
2023-03-21T06:23:28.417Z,2.17
2023-03-21T06:25:55.672Z,2.33
2023-03-21T06:28:25.307Z,2.27
2023-03-21T06:30:52.572Z,2.27
2023-03-21T06:33:23.502Z,2.90
2023-03-21T06:35:54.863Z,2.67
2023-03-21T06:38:22.494Z,3.40
2023-03-21T06:40:49.917Z,3.20
2023-03-21T06:43:17.297Z,2.80
2023-03-21T06:45:45.290Z,2.50
2023-03-21T06:48:12.435Z,2.93
2023-03-21T06:50:49.644Z,2.87
2023-03-21T06:53:18.008Z,3.03
2023-03-21T06:56:03.251Z,2.47
2023-03-21T06:58:32.348Z,2.53
2023-03-21T07:01:02.902Z,2.60
2023-03-21T07:03:32.817Z,2.73
2023-03-21T07:06:11.900Z,2.53
2023-03-21T07:08:39.793Z,2.90
2023-03-21T07:11:08.146Z,2.83
2023-03-21T07:13:34.861Z,2.40
2023-03-21T07:16:05.673Z,2.87
2023-03-21T07:18:32.512Z,2.80
2023-03-21T07:20:59.372Z,2.70
2023-03-21T07:23:27.181Z,2.60
2023-03-21T07:25:55.023Z,2.73
2023-03-21T07:28:22.841Z,3.07
2023-03-21T07:30:58.805Z,3.40
2023-03-21T07:33:26.649Z,3.93
2023-03-21T07:35:58.709Z,2.50
2023-03-21T07:38:25.896Z,2.73
2023-03-21T07:40:53.707Z,3.13
2023-03-21T07:43:20.632Z,3.43
2023-03-21T07:45:50.265Z,2.87
2023-03-21T07:48:17.967Z,3.10
2023-03-21T07:50:44.695Z,3.07
2023-03-21T07:53:11.390Z,2.40
2023-03-21T07:55:38.356Z,2.80
2023-03-21T07:58:05.399Z,3.03
2023-03-21T08:00:32.880Z,2.90
2023-03-21T08:03:00.389Z,2.97
2023-03-21T08:05:38.608Z,3.67
2023-03-21T08:08:06.956Z,2.63
2023-03-21T08:10:34.339Z,2.80
2023-03-21T08:13:00.983Z,2.90
2023-03-21T08:15:27.867Z,2.80
2023-03-21T08:17:54.818Z,2.70
2023-03-21T08:20:23.530Z,2.53
2023-03-21T08:22:50.770Z,2.57
2023-03-21T08:25:20.209Z,2.57
2023-03-21T08:27:47.073Z,2.63
2023-03-21T08:30:16.759Z,2.50
2023-03-21T08:32:44.123Z,2.37
2023-03-21T08:35:13.572Z,2.63
2023-03-21T08:37:40.924Z,2.73
2023-03-21T08:40:14.360Z,2.50
2023-03-21T08:42:42.006Z,2.47
2023-03-21T08:45:09.934Z,2.10
2023-03-21T08:47:36.765Z,2.70
2023-03-21T08:50:06.742Z,2.27
2023-03-21T08:52:33.534Z,2.80
2023-03-21T08:55:02.087Z,2.37
2023-03-21T08:57:29.700Z,2.60
2023-03-21T08:59:56.493Z,2.80
2023-03-21T09:02:23.300Z,2.50
2023-03-21T09:04:53.046Z,2.67
2023-03-21T09:07:20.153Z,2.80
2023-03-21T09:09:53.487Z,3.17
2023-03-21T09:12:24.901Z,2.80
2023-03-21T09:14:53.178Z,2.67
2023-03-21T09:17:21.273Z,2.17
2023-03-21T09:19:49.650Z,2.83
2023-03-21T09:22:21.305Z,2.77
2023-03-21T09:24:48.667Z,3.03
2023-03-21T09:27:18.062Z,2.67
2023-03-21T09:29:45.041Z,2.67
2023-03-21T09:32:14.664Z,2.80
2023-03-21T09:34:41.819Z,2.47
2023-03-21T09:37:13.374Z,3.10
2023-03-21T09:39:41.146Z,2.70
2023-03-21T09:42:27.321Z,2.80
2023-03-21T09:45:01.315Z,2.80
2023-03-21T09:47:33.049Z,2.60
2023-03-21T09:50:14.869Z,2.10
2023-03-21T09:52:48.188Z,2.80
2023-03-21T09:55:37.679Z,2.80
2023-03-21T09:58:26.025Z,2.83
2023-03-21T10:01:28.165Z,2.37
2023-03-21T10:03:56.903Z,2.93
2023-03-21T10:06:30.312Z,2.33
2023-03-21T10:09:07.432Z,2.80
2023-03-21T10:11:44.593Z,2.87
2023-03-21T10:14:19.940Z,2.77
2023-03-21T10:16:52.281Z,2.70
2023-03-21T10:19:20.197Z,2.63
2023-03-21T10:22:00.705Z,3.40
2023-03-21T10:24:31.102Z,2.80
2023-03-21T10:26:58.502Z,2.43
2023-03-21T10:29:36.992Z,2.77
2023-03-21T10:32:03.910Z,2.90
2023-03-21T10:34:32.644Z,2.43
2023-03-21T10:37:01.782Z,2.27
2023-03-21T10:39:40.828Z,2.60
2023-03-21T10:42:19.733Z,2.57
2023-03-21T10:44:49.688Z,2.60
2023-03-21T10:47:30.411Z,2.67
2023-03-21T10:50:08.095Z,3.80
2023-03-21T10:52:41.609Z,3.10
2023-03-21T10:55:25.861Z,2.77
2023-03-21T10:57:57.597Z,2.37
2023-03-21T11:00:29.125Z,2.20
2023-03-21T11:02:57.280Z,2.30
2023-03-21T11:05:41.827Z,2.00
2023-03-21T11:08:18.102Z,2.07
2023-03-21T11:11:05.693Z,2.00
2023-03-21T11:13:43.951Z,2.10
2023-03-21T11:16:23.751Z,2.30
2023-03-21T11:18:52.390Z,2.27
2023-03-21T11:21:21.648Z,2.17
2023-03-21T11:23:51.701Z,1.93
2023-03-21T11:26:33.096Z,2.00
2023-03-21T11:29:00.841Z,2.30
2023-03-21T11:31:39.655Z,2.37
2023-03-21T11:34:08.553Z,2.27
2023-03-21T11:36:40.996Z,2.70
2023-03-21T11:39:22.563Z,1.60
2023-03-21T11:41:52.070Z,2.10
2023-03-21T11:44:34.879Z,1.90
2023-03-21T11:47:02.198Z,3.13
2023-03-21T11:49:29.339Z,1.97
2023-03-21T11:51:58.788Z,1.70
2023-03-21T11:54:33.295Z,1.73
2023-03-21T11:57:06.015Z,1.80
2023-03-21T11:59:57.921Z,1.50
2023-03-21T12:02:48.336Z,1.87
2023-03-21T12:05:23.530Z,1.67
2023-03-21T12:08:05.428Z,2.10
2023-03-21T12:10:43.750Z,2.33
2023-03-21T12:13:16.235Z,2.50
2023-03-21T12:16:06.516Z,4.43
2023-03-21T12:18:39.264Z,2.13
2023-03-21T12:21:31.035Z,2.67
2023-03-21T12:24:22.033Z,4.37
2023-03-21T12:27:09.416Z,2.77
2023-03-21T12:29:36.324Z,2.90
2023-03-21T12:32:46.081Z,2.60
2023-03-21T12:35:41.358Z,2.40
2023-03-21T12:38:40.299Z,4.07
2023-03-21T12:41:23.776Z,3.83
2023-03-21T12:43:56.350Z,3.00
2023-03-21T12:47:03.154Z,3.17
2023-03-21T12:49:39.372Z,4.80
2023-03-21T12:52:19.269Z,6.53
2023-03-21T12:54:55.086Z,3.33
2023-03-21T12:57:29.127Z,5.93
2023-03-21T13:00:17.938Z,3.67
2023-03-21T13:02:59.490Z,3.23
2023-03-21T13:05:37.990Z,3.10
2023-03-21T13:08:27.093Z,3.30
2023-03-21T13:10:55.719Z,4.20
2023-03-21T13:13:33.599Z,3.43
2023-03-21T13:16:05.258Z,3.10
2023-03-21T13:18:47.171Z,3.80
2023-03-21T13:21:37.891Z,3.37
2023-03-21T13:24:23.444Z,3.83
2023-03-21T13:26:56.801Z,4.60
2023-03-21T13:29:47.329Z,3.37
2023-03-21T13:32:32.046Z,2.93
2023-03-21T13:35:18.284Z,4.17
2023-03-21T13:37:55.922Z,3.40
2023-03-21T13:40:24.353Z,3.13
2023-03-21T13:42:59.426Z,3.37
2023-03-21T13:45:47.264Z,3.60
2023-03-21T13:48:32.776Z,3.30
2023-03-21T13:51:06.540Z,3.17
2023-03-21T13:53:40.441Z,3.10
2023-03-21T13:56:14.512Z,3.40
2023-03-21T13:58:44.304Z,3.80
2023-03-21T14:01:31.405Z,3.63
2023-03-21T14:04:16.371Z,3.33
2023-03-21T14:06:43.222Z,3.57
2023-03-21T14:09:21.658Z,4.37
2023-03-21T14:11:53.146Z,5.47
2023-03-21T14:14:23.822Z,4.97
2023-03-21T14:16:53.785Z,3.90
2023-03-21T14:19:21.214Z,3.43
2023-03-21T14:21:53.643Z,3.40
2023-03-21T14:24:21.116Z,3.30
2023-03-21T14:26:51.261Z,3.47
2023-03-21T14:29:33.618Z,3.37
2023-03-21T14:32:01.803Z,3.67
2023-03-21T14:34:35.607Z,3.90
2023-03-21T14:37:02.694Z,3.63
2023-03-21T14:39:31.999Z,3.50
2023-03-21T14:42:06.110Z,3.57
2023-03-21T14:44:53.953Z,3.93
2023-03-21T14:47:29.946Z,3.97
2023-03-21T14:49:58.087Z,4.00
2023-03-21T14:52:32.448Z,3.93
2023-03-21T14:55:01.572Z,4.10
2023-03-21T14:57:33.385Z,4.70
2023-03-21T15:00:06.799Z,4.87
2023-03-21T15:02:36.857Z,4.17
2023-03-21T15:05:26.032Z,4.57
2023-03-21T15:08:03.238Z,4.33
2023-03-21T15:10:31.993Z,3.67
2023-03-21T15:13:18.140Z,3.53
2023-03-21T15:15:46.251Z,3.70
2023-03-21T15:18:18.290Z,3.63
2023-03-21T15:20:48.340Z,3.77
2023-03-21T15:23:27.877Z,3.40
2023-03-21T15:25:55.341Z,4.07
2023-03-21T15:28:22.445Z,3.77
2023-03-21T15:30:51.818Z,3.50
2023-03-21T15:33:19.784Z,3.47
2023-03-21T15:35:54.045Z,4.10
2023-03-21T15:38:33.822Z,3.60
2023-03-21T15:41:21.044Z,4.63
2023-03-21T15:44:00.605Z,3.60
2023-03-21T15:46:42.364Z,4.00
2023-03-21T15:49:12.984Z,5.47
2023-03-21T15:51:46.320Z,6.73
2023-03-21T15:54:40.709Z,6.47
2023-03-21T15:57:30.284Z,6.60
2023-03-21T16:00:06.466Z,5.07
2023-03-21T16:02:41.838Z,3.87
2023-03-21T16:05:31.505Z,4.10
2023-03-21T16:08:17.164Z,4.43
2023-03-21T16:10:44.076Z,3.77
2023-03-21T16:13:13.710Z,3.63
2023-03-21T16:15:41.028Z,3.47
2023-03-21T16:18:10.907Z,3.33
2023-03-21T16:20:46.455Z,3.40
2023-03-21T16:23:14.590Z,3.50
2023-03-21T16:25:43.632Z,4.27
2023-03-21T16:28:16.570Z,4.30
2023-03-21T16:30:43.853Z,4.00
2023-03-21T16:33:13.602Z,4.60
2023-03-21T16:35:41.108Z,4.00
2023-03-21T16:38:09.223Z,13.03
2023-03-21T16:40:39.354Z,9.30
2023-03-21T16:43:06.658Z,4.10
2023-03-21T16:45:33.558Z,3.90
2023-03-21T16:48:00.874Z,4.37
2023-03-21T16:50:36.111Z,4.07
2023-03-21T16:53:03.683Z,4.40
2023-03-21T16:55:32.866Z,5.13
2023-03-21T16:58:00.320Z,4.00
2023-03-21T17:00:29.097Z,3.73
2023-03-21T17:02:59.013Z,3.17
2023-03-21T17:05:27.912Z,3.47
2023-03-21T17:07:55.170Z,3.43
2023-03-21T17:10:28.151Z,3.27
2023-03-21T17:12:54.880Z,3.30
2023-03-21T17:15:22.087Z,3.20
2023-03-21T17:17:50.266Z,4.67
2023-03-21T17:20:21.285Z,3.13
2023-03-21T17:22:48.789Z,3.40
2023-03-21T17:25:17.136Z,3.00
2023-03-21T17:27:44.160Z,2.73
2023-03-21T17:30:22.807Z,2.73
2023-03-21T17:32:51.563Z,3.00
2023-03-21T17:35:19.153Z,2.50
2023-03-21T17:37:50.301Z,2.83
2023-03-21T17:40:29.537Z,2.90
2023-03-21T17:42:56.894Z,3.03
2023-03-21T17:45:23.943Z,3.10
2023-03-21T17:47:51.540Z,2.40
2023-03-21T17:50:26.713Z,4.50
2023-03-21T17:52:56.388Z,5.40
2023-03-21T17:55:23.579Z,5.57
2023-03-21T17:57:50.309Z,6.13
2023-03-21T18:00:21.236Z,5.57
2023-03-21T18:02:48.584Z,7.07
2023-03-21T18:05:16.120Z,7.53
2023-03-21T18:10:31.937Z,7.00
2023-03-21T18:12:58.954Z,10.77
2023-03-21T18:15:30.490Z,7.43
2023-03-21T18:17:57.637Z,7.77
2023-03-21T18:20:49.862Z,9.23
2023-03-21T18:23:16.050Z,9.57
2023-03-21T18:25:42.933Z,10.67
2023-03-21T18:28:12.163Z,9.00
2023-03-21T18:33:27.562Z,3.00
2023-03-21T18:35:58.993Z,2.50
2023-03-21T18:38:27.438Z,2.47
2023-03-21T18:40:54.473Z,2.90
2023-03-21T18:46:08.800Z,2.00
2023-03-21T18:48:35.907Z,2.20
2023-03-21T18:51:04.306Z,2.27
2023-03-21T18:53:30.983Z,4.00
2023-03-21T18:55:57.822Z,6.83
2023-03-21T18:58:25.372Z,6.50
2023-03-21T19:00:53.691Z,3.63
2023-03-21T19:03:34.190Z,4.10
2023-03-21T19:06:04.573Z,3.20
2023-03-21T19:08:31.872Z,3.93
2023-03-21T19:11:03.294Z,3.17
2023-03-21T19:13:33.160Z,3.20
2023-03-21T19:16:02.405Z,3.73
2023-03-21T19:18:49.944Z,3.33
2023-03-21T19:21:17.058Z,2.73
2023-03-21T19:24:20.934Z,2.10
2023-03-21T19:26:30.438Z,2.97
2023-03-21T19:28:57.312Z,2.93
2023-03-21T19:31:24.417Z,3.50
2023-03-21T19:33:51.461Z,18.77
2023-03-21T19:36:22.510Z,16.17
2023-03-21T19:38:50.957Z,13.47
2023-03-21T19:41:18.897Z,10.50
2023-03-21T19:43:54.283Z,5.20
2023-03-21T19:46:25.318Z,6.30
2023-03-21T19:48:56.132Z,7.60
2023-03-21T19:51:29.307Z,9.30
2023-03-21T19:54:00.645Z,8.70
2023-03-21T19:56:27.943Z,7.07
2023-03-21T19:58:55.769Z,5.57
2023-03-21T20:01:24.123Z,4.70
2023-03-21T20:03:51.493Z,4.60
2023-03-21T20:06:18.591Z,4.50
2023-03-21T20:11:33.203Z,5.43
2023-03-21T20:14:01.923Z,5.93
2023-03-21T20:16:34.588Z,5.20
2023-03-21T20:19:04.555Z,4.53
2023-03-21T20:21:40.172Z,4.07
2023-03-21T20:24:12.557Z,3.40
2023-03-21T20:26:39.636Z,3.07
2023-03-21T20:29:43.642Z,3.20
2023-03-21T20:31:53.349Z,3.23
2023-03-21T20:34:21.274Z,2.60
2023-03-21T20:36:48.427Z,2.77
2023-03-21T20:39:15.437Z,3.10
2023-03-21T20:41:42.398Z,2.77
2023-03-21T20:46:56.907Z,3.50
2023-03-21T20:49:24.313Z,2.90
2023-03-21T20:52:46.217Z,4.30
2023-03-21T20:54:38.199Z,5.50
2023-03-21T20:57:05.072Z,3.43
2023-03-21T20:59:32.081Z,3.40
2023-03-21T21:01:59.441Z,3.20
2023-03-21T21:04:48.184Z,2.50
2023-03-21T21:07:18.058Z,3.67
2023-03-21T21:09:45.671Z,3.83
2023-03-21T21:12:14.951Z,4.57
2023-03-21T21:14:42.453Z,4.80
2023-03-21T21:17:42.891Z,4.27
2023-03-21T21:19:56.495Z,4.70
2023-03-21T21:22:23.207Z,4.07
2023-03-21T21:24:49.949Z,4.47
2023-03-21T21:27:16.909Z,3.53
2023-03-21T21:29:43.740Z,3.63
2023-03-21T21:32:11.375Z,4.00
2023-03-21T21:34:38.370Z,4.10
2023-03-21T21:37:05.262Z,4.83
2023-03-21T21:39:37.772Z,4.40
2023-03-21T21:42:05.277Z,4.53
2023-03-21T21:44:32.047Z,3.63
2023-03-21T21:46:59.126Z,5.00
2023-03-21T21:49:26.760Z,4.80
2023-03-21T21:51:53.486Z,5.40
2023-03-21T21:54:20.211Z,5.93
2023-03-21T21:56:54.099Z,5.47
2023-03-21T21:59:22.099Z,5.20
2023-03-21T22:01:51.303Z,4.70
2023-03-21T22:04:27.621Z,4.30
2023-03-21T22:06:55.301Z,5.33
2023-03-21T22:09:22.157Z,6.20
2023-03-21T22:11:48.982Z,7.10
2023-03-21T22:14:16.075Z,6.97
2023-03-21T22:16:43.914Z,6.77
2023-03-21T22:19:10.650Z,6.23
2023-03-21T22:21:37.372Z,7.47
2023-03-21T22:24:04.400Z,6.13
2023-03-21T22:26:31.468Z,4.70
2023-03-21T22:28:59.830Z,3.80
2023-03-21T22:31:26.640Z,3.37
2023-03-21T22:33:53.414Z,3.70
2023-03-21T22:36:20.207Z,4.00
2023-03-21T22:38:47.775Z,5.10
2023-03-21T22:41:14.563Z,6.07
2023-03-21T22:43:41.508Z,6.60
2023-03-21T22:46:08.373Z,5.53
2023-03-21T22:48:35.312Z,5.30
2023-03-21T22:51:02.553Z,5.33
2023-03-21T22:53:29.827Z,5.93
2023-03-21T22:55:56.651Z,6.60
2023-03-21T22:58:23.598Z,8.73
2023-03-21T23:00:50.573Z,5.70
2023-03-21T23:03:17.831Z,4.10
2023-03-21T23:05:45.146Z,3.60
2023-03-21T23:08:12.701Z,4.20
2023-03-21T23:10:40.993Z,3.00
2023-03-21T23:13:07.957Z,3.07
2023-03-21T23:15:34.702Z,3.57
2023-03-21T23:18:01.465Z,4.20
2023-03-21T23:20:28.221Z,4.53
2023-03-21T23:22:55.154Z,4.77
2023-03-21T23:25:22.040Z,4.87
2023-03-21T23:27:49.043Z,4.63
2023-03-21T23:30:15.808Z,4.77
2023-03-21T23:32:42.759Z,4.90
2023-03-21T23:35:09.888Z,5.60
2023-03-21T23:37:36.947Z,5.80
2023-03-21T23:40:06.324Z,5.03
2023-03-21T23:42:34.305Z,5.50
2023-03-21T23:45:01.253Z,5.40
2023-03-21T23:47:28.278Z,5.50
2023-03-21T23:49:55.080Z,5.90
2023-03-21T23:52:22.074Z,5.27
2023-03-21T23:54:49.079Z,6.03
2023-03-21T23:57:17.223Z,5.97
2023-03-21T23:59:46.530Z,6.60
